• Join FlightAware (Why Join?)
  • Login
  • US Flag 
07:26AM EDT


 

Airport Tracker/Info


-or-


 

Live Flight TrackerFlight Track Log ✈ N662US ✈ 26-Apr-2013 ✈ RJAA / NRT - RCTP / TPE

Flight Track Log - Related Links

Times and Time Zones

All times are in EDT time to prevent confusion due to time zone crossing. See the N662US flight status page for this flight to view local times or setup timezone preferences in your user account.

Time Position Orientation Groundspeed Altitude Reporting Facility
EDT Latitude Longitude Course Direction KTS MPH feet Rate Location/Type
06:16AM 35.7208 140.2835 242° Southwest  Level Estimated
06:17AM 35.6768 140.1808 242° Southwest  Level Estimated
06:18AM 35.6327 140.0782 242° Southwest  Level Estimated
06:19AM 35.5885 139.9757 242° Southwest  Level Estimated
06:20AM 35.5443 139.8733 242° Southwest  Level Estimated
06:21AM 35.4999 139.7710 242° Southwest  Level Estimated
06:22AM 35.4555 139.6688 242° Southwest  Level Estimated
06:23AM 35.4110 139.5668 242° Southwest  Level Estimated
06:24AM 35.3664 139.4648 242° Southwest  Level Estimated
06:25AM 35.3217 139.3630 242° Southwest  Level Estimated
06:26AM 35.2769 139.2613 242° Southwest  Level Estimated
06:27AM 35.2320 139.1597 242° Southwest  Level Estimated
06:28AM 35.1871 139.0582 242° Southwest  Level Estimated
06:28AM 35.7650 140.3750 242° Southwest 164 189 1,400  Level FlightAware
06:28AM 35.7770 140.3670 332° Northwest 170 196 2,200 2,400 Climbing FlightAware
06:28AM 35.7980 140.3530 332° Northwest 177 204 3,200 1,860 Climbing FlightAware
06:29AM 35.8170 140.3380 327° Northwest 190 219 4,100 1,380 Climbing FlightAware
06:29AM 35.8390 140.3210 328° Northwest 224 258 4,500 1,740 Climbing FlightAware
06:30AM 35.8690 140.2990 329° Northwest 246 283 5,700 1,740 Climbing FlightAware
06:32AM 35.7870 140.1102 242° Southwest  Level Estimated
06:32AM 35.9350 140.3890 242° Southwest 275 316 9,300  Level FlightAware
06:33AM 35.8670 140.3930 177° South 294 338 10,800 1,740 Climbing FlightAware
06:34AM 35.7940 140.3910 181° South 322 371 12,400 2,400 Climbing FlightAware
06:35AM 35.6910 140.3490 198° South 339 390 15,700 2,700 Climbing FlightAware
06:36AM 35.6560 140.2960 231° Southwest 342 394 17,400 2,880 Climbing FlightAware
06:36AM 35.6070 140.2210 231° Southwest 360 414 19,600 3,000 Climbing FlightAware
06:37AM 35.5610 140.1500 231° Southwest 364 419 21,700 3,240 Climbing FlightAware
06:38AM 35.5180 140.0830 232° Southwest 350 403 24,200 3,120 Climbing FlightAware
06:38AM 35.4720 140.0150 230° Southwest 348 400 26,200 2,460 Climbing FlightAware
06:39AM 35.4370 139.9480 237° Southwest 351 404 27,700 1,860 Climbing FlightAware
06:40AM 35.4120 139.8750 247° West 364 419 28,700 1,500 Climbing FlightAware
06:41AM 35.3860 139.7840 251° West 373 429 29,900 1,380 Climbing FlightAware
06:41AM 35.3630 139.7020 251° West 386 444 30,700 1,380 Climbing FlightAware
06:42AM 35.3430 139.6130 255° West 395 455 31,900 1,680 Climbing FlightAware
06:43AM 35.3300 139.5180 261° West 393 452 33,100 1,860 Climbing FlightAware
06:43AM 35.3200 139.4300 262° West 389 448 34,400 1,680 Climbing FlightAware
06:44AM 35.3080 139.3330 261° West 387 445 35,500 1,200 Climbing FlightAware
06:45AM 35.2980 139.2460 262° West 389 448 36,100 900 Climbing FlightAware
06:45AM 35.2860 139.1470 262° West 389 448 36,800 660 Climbing FlightAware
06:46AM 35.2750 139.0600 261° West 397 457 37,100 480 Climbing FlightAware
06:47AM 35.2650 138.9690 262° West 399 459 37,500 480 Climbing FlightAware
06:48AM 35.2520 138.8690 261° West 406 467 37,800 300 Climbing FlightAware
06:48AM 35.2400 138.7640 262° West 406 467 38,000 120 Climbing FlightAware
06:49AM 35.2290 138.6740 262° West 404 465 38,000  Level FlightAware
06:50AM 35.2160 138.5740 261° West 403 464 38,000  Level FlightAware
06:50AM 35.2070 138.4980 262° West 403 464 38,000  Level FlightAware
06:51AM 35.1960 138.4120 261° West 400 460 38,000  Level FlightAware
06:52AM 35.1820 138.3010 261° West 396 456 38,000  Level FlightAware
06:52AM 35.1710 138.2140 261° West 397 457 38,000  Level FlightAware
06:53AM 35.1590 138.1230 261° West 397 457 38,000  Level FlightAware
06:54AM 35.1480 138.0330 262° West 403 464 38,000  Level FlightAware
06:55AM 35.1350 137.9320 261° West 407 468 38,000  Level FlightAware
06:55AM 35.1220 137.8310 261° West 409 471 38,000  Level FlightAware
06:56AM 35.1130 137.7630 261° West 410 472 38,000  Level FlightAware
06:57AM 35.0950 137.6300 261° West 410 472 38,000  Level FlightAware
06:57AM 35.0840 137.5410 261° West 411 473 38,000  Level FlightAware
06:58AM 35.0700 137.4490 259° West 409 471 38,000  Level FlightAware
06:59AM 35.0390 137.3530 248° West 409 471 38,000  Level FlightAware
06:59AM 35.0080 137.2730 245° Southwest 409 471 38,000  Level FlightAware
07:00AM 34.9760 137.1860 246° West 405 466 38,000  Level FlightAware
07:01AM 34.9430 137.1020 244° Southwest 407 468 38,000  Level FlightAware
07:02AM 34.9070 137.0060 245° Southwest 406 467 38,000  Level FlightAware
07:02AM 34.8710 136.9110 245° Southwest 402 463 38,000  Level FlightAware
07:03AM 34.8290 136.8020 245° Southwest 402 463 38,000  Level FlightAware
07:04AM 34.7980 136.7210 245° Southwest 404 465 38,000  Level FlightAware
07:05AM 34.7610 136.6250 245° Southwest 398 458 38,000  Level FlightAware
07:05AM 34.7270 136.5380 245° Southwest 398 458 38,000  Level FlightAware
07:06AM 34.6790 136.4120 245° Southwest 397 457 38,000  Level FlightAware
07:07AM 34.6430 136.3190 245° Southwest 400 460 38,000  Level FlightAware
07:08AM 34.6060 136.2260 244° Southwest 411 473 38,000  Level FlightAware
07:09AM 34.5730 136.1420 245° Southwest 410 472 38,000  Level FlightAware
07:09AM 34.5370 136.0590 242° Southwest 414 476 38,000  Level FlightAware
07:10AM 34.4970 135.9650 243° Southwest 409 471 38,000  Level FlightAware
07:11AM 34.4620 135.8860 242° Southwest 415 478 38,000  Level FlightAware
07:11AM 34.4250 135.7980 243° Southwest 415 478 38,000  Level FlightAware
07:12AM 34.3880 135.7110 243° Southwest 414 476 38,000  Level FlightAware
07:13AM 34.3440 135.6100 242° Southwest 413 475 38,000  Level FlightAware
07:13AM 34.3100 135.5310 242° Southwest 415 478 38,000  Level FlightAware
07:14AM 34.2730 135.4460 242° Southwest 414 476 38,000  Level FlightAware
07:15AM 34.2330 135.3540 242° Southwest 414 476 38,000  Level FlightAware
07:16AM 34.1990 135.2760 242° Southwest 413 475 38,000  Level FlightAware
07:16AM 34.1570 135.1800 242° Southwest 409 471 38,000  Level FlightAware
07:17AM 34.1210 135.0990 242° Southwest 406 467 38,000  Level FlightAware
07:18AM 34.0860 135.0200 242° Southwest 406 467 38,000  Level FlightAware
07:18AM 34.0480 134.9320 242° Southwest 405 466 38,000  Level FlightAware
07:19AM 34.0110 134.8500 241° Southwest 407 468 38,000  Level FlightAware
07:20AM 33.9750 134.7700 242° Southwest 408 470 38,000  Level FlightAware
07:20AM 33.9360 134.6800 242° Southwest 405 466 38,000  Level FlightAware
07:21AM 33.9010 134.6020 242° Southwest 406 467 38,000  Level FlightAware
07:22AM 33.8610 134.5130 242° Southwest 407 468 38,000  Level FlightAware
07:23AM 33.8240 134.4310 242° Southwest 405 466 38,000  Level FlightAware
07:23AM 33.7850 134.3430 242° Southwest 405 466 38,000  Level FlightAware
07:24AM 33.7490 134.2650 241° Southwest 406 467 38,000  Level FlightAware
07:25AM 33.7130 134.1840 242° Southwest 406 467 38,000  Level FlightAware
07:25AM 33.6780 134.1080 241° Southwest 410 472 38,000  Level FlightAware
07:26AM 33.6370 134.0170 242° Southwest 412 474 38,000  Level FlightAware
07:27AM 33.6010 133.9390 241° Southwest 410 472 38,000  Level FlightAware
07:28AM 33.5370 133.7980 241° Southwest 411 473 38,000  Level FlightAware
07:29AM 33.4940 133.7060 241° Southwest 412 474 38,000  Level FlightAware
07:29AM 33.4590 133.6290 241° Southwest 408 470 38,000  Level FlightAware
07:30AM 33.4210 133.5460 241° Southwest 403 464 38,000  Level FlightAware
07:33AM 33.2763 133.2962 235° Southwest  Level Estimated
07:34AM 33.2194 133.1985 235° Southwest  Level Estimated
07:35AM 33.1624 133.1008 235° Southwest  Level Estimated
07:36AM 33.1054 133.0034 235° Southwest  Level Estimated
07:37AM 33.0482 132.9060 235° Southwest  Level Estimated
07:38AM 32.9910 132.8088 235° Southwest  Level Estimated
07:39AM 32.9338 132.7117 235° Southwest  Level Estimated
07:40AM 32.8764 132.6147 235° Southwest  Level Estimated
07:41AM 32.8190 132.5179 235° Southwest  Level Estimated
07:42AM 32.7615 132.4211 235° Southwest  Level Estimated
07:43AM 32.7039 132.3245 235° Southwest  Level Estimated
07:44AM 32.6463 132.2280 235° Southwest  Level Estimated
07:45AM 32.5886 132.1317 235° Southwest  Level Estimated
07:46AM 32.5308 132.0355 235° Southwest  Level Estimated
07:47AM 32.4729 131.9394 235° Southwest  Level Estimated
07:48AM 32.4150 131.8434 234° Southwest  Level Estimated
07:49AM 32.3569 131.7475 234° Southwest  Level Estimated
07:50AM 32.2989 131.6518 234° Southwest  Level Estimated
07:51AM 32.2407 131.5562 234° Southwest  Level Estimated
07:51AM 32.1300 131.3030 234° Southwest 375 432 38,000  Level FlightAware
07:52AM 32.1825 131.4607 234° Southwest  Level Estimated
07:52AM 32.0860 131.2300 235° Southwest 375 432 38,000  Level FlightAware
07:53AM 32.0430 131.1590 234° Southwest 378 435 38,000  Level FlightAware
07:53AM 32.0080 131.1020 234° Southwest 380 437 38,000  Level FlightAware
07:54AM 31.9550 131.0150 234° Southwest 381 438 38,000  Level FlightAware
07:55AM 31.9140 130.9470 235° Southwest 380 437 38,000  Level FlightAware
07:56AM 31.8700 130.8750 234° Southwest 381 438 38,000  Level FlightAware
07:56AM 31.8280 130.8060 234° Southwest 384 442 38,000  Level FlightAware
07:57AM 31.7870 130.7390 234° Southwest 384 442 38,000  Level FlightAware
07:58AM 31.7380 130.6600 234° Southwest 383 441 38,000  Level FlightAware
07:58AM 31.6980 130.5940 235° Southwest 382 440 38,000  Level FlightAware
07:59AM 31.6570 130.5290 233° Southwest 384 442 38,000  Level FlightAware
08:00AM 31.6050 130.4510 232° Southwest 382 440 38,000  Level FlightAware
08:01AM 31.5660 130.3930 232° Southwest 381 438 38,000  Level FlightAware
08:01AM 31.5160 130.3170 232° Southwest 379 436 38,000  Level FlightAware
08:02AM 31.4760 130.2560 232° Southwest 379 436 38,000  Level FlightAware
08:03AM 31.4230 130.1760 232° Southwest 379 436 38,000  Level FlightAware
08:03AM 31.3810 130.1130 232° Southwest 378 435 38,000  Level FlightAware
08:04AM 31.3390 130.0510 232° Southwest 378 435 38,000  Level FlightAware
08:05AM 31.2950 129.9840 232° Southwest 374 430 38,000  Level FlightAware
08:05AM 31.2560 129.9250 232° Southwest 374 430 38,000  Level FlightAware
08:06AM 31.2000 129.8420 232° Southwest 374 430 38,000  Level FlightAware
08:07AM 31.1660 129.7910 232° Southwest 374 430 38,000  Level FlightAware
08:08AM 31.1180 129.7190 232° Southwest 374 430 38,000  Level FlightAware
08:08AM 31.0820 129.6650 232° Southwest 374 430 38,000  Level FlightAware
08:09AM 31.0460 129.6110 232° Southwest 374 430 38,000  Level FlightAware
08:10AM 31.0000 129.5430 232° Southwest 374 430 38,000  Level FlightAware
08:10AM 30.9640 129.4890 232° Southwest 374 430 38,000  Level FlightAware
08:11AM 30.9280 129.4350 232° Southwest 374 430 38,000  Level FlightAware
08:12AM 30.8920 129.3810 232° Southwest 374 430 38,000  Level FlightAware
08:12AM 30.8550 129.3270 231° Southwest 374 430 38,000  Level FlightAware
08:13AM 30.8190 129.2730 232° Southwest 374 430 38,000  Level FlightAware
08:14AM 30.7740 129.2060 232° Southwest 374 430 38,000  Level FlightAware
08:15AM 30.7380 129.1520 232° Southwest 374 430 38,000  Level FlightAware
08:15AM 30.7010 129.0980 231° Southwest 374 430 38,000  Level FlightAware
08:16AM 30.6650 129.0440 232° Southwest 374 430 38,000  Level FlightAware
08:17AM 30.6290 128.9900 232° Southwest 374 430 38,000 -180 Level FlightAware
08:19AM 30.5107 128.8087 233° Southwest  Level Estimated
08:20AM 30.4504 128.7167 233° Southwest  Level Estimated
08:21AM 30.3901 128.6248 233° Southwest  Level Estimated
08:22AM 30.3297 128.5330 233° Southwest  Level Estimated
08:23AM 30.2693 128.4414 233° Southwest  Level Estimated
08:24AM 30.2088 128.3498 233° Southwest  Level Estimated
08:25AM 30.1482 128.2584 233° Southwest  Level Estimated
08:26AM 30.0875 128.1671 233° Southwest  Level Estimated
08:27AM 30.0268 128.0758 232° Southwest  Level Estimated
08:28AM 29.9661 127.9847 232° Southwest  Level Estimated
08:29AM 29.9053 127.8937 232° Southwest  Level Estimated
08:30AM 29.8444 127.8028 232° Southwest  Level Estimated
08:31AM 29.7834 127.7121 232° Southwest  Level Estimated
08:32AM 29.7224 127.6214 232° Southwest  Level Estimated
08:33AM 29.6613 127.5309 232° Southwest  Level Estimated
08:34AM 29.6002 127.4404 232° Southwest  Level Estimated
08:35AM 29.5390 127.3501 232° Southwest  Level Estimated
08:36AM 29.4777 127.2599 232° Southwest  Level Estimated
08:37AM 29.4164 127.1698 232° Southwest  Level Estimated
08:38AM 29.3550 127.0798 232° Southwest  Level Estimated
08:39AM 29.2936 126.9899 232° Southwest  Level Estimated
08:40AM 29.2321 126.9001 232° Southwest  Level Estimated
08:41AM 29.1705 126.8104 232° Southwest  Level Estimated
08:42AM 29.1089 126.7208 232° Southwest  Level Estimated
08:43AM 29.0472 126.6314 232° Southwest  Level Estimated
08:44AM 28.9855 126.5420 232° Southwest  Level Estimated
08:45AM 28.9237 126.4528 232° Southwest  Level Estimated
08:46AM 28.8618 126.3636 232° Southwest  Level Estimated
08:47AM 28.7999 126.2746 232° Southwest  Level Estimated
08:48AM 28.7379 126.1856 232° Southwest  Level Estimated
08:49AM 28.6759 126.0968 231° Southwest  Level Estimated
08:50AM 28.6138 126.0081 231° Southwest  Level Estimated
08:51AM 28.5517 125.9195 231° Southwest  Level Estimated
08:52AM 28.4895 125.8309 231° Southwest  Level Estimated
08:53AM 28.4272 125.7425 231° Southwest  Level Estimated
08:54AM 28.3649 125.6542 231° Southwest  Level Estimated
08:55AM 28.3025 125.5660 231° Southwest  Level Estimated
08:56AM 28.2401 125.4779 231° Southwest  Level Estimated
08:57AM 28.1776 125.3899 231° Southwest  Level Estimated
08:58AM 28.1150 125.3020 231° Southwest  Level Estimated
08:59AM 28.0524 125.2143 231° Southwest  Level Estimated
09:00AM 27.9898 125.1266 231° Southwest  Level Estimated
09:01AM 27.9270 125.0390 231° Southwest  Level Estimated
09:02AM 27.8643 124.9515 231° Southwest  Level Estimated
09:03AM 27.8015 124.8641 231° Southwest  Level Estimated
09:04AM 27.7386 124.7768 231° Southwest  Level Estimated
09:05AM 27.6756 124.6897 231° Southwest  Level Estimated
09:06AM 27.6127 124.6026 231° Southwest  Level Estimated
09:07AM 27.5496 124.5156 231° Southwest  Level Estimated
09:08AM 27.4865 124.4287 231° Southwest  Level Estimated
09:09AM 27.4234 124.3419 231° Southwest  Level Estimated
09:10AM 27.3602 124.2553 231° Southwest  Level Estimated
09:11AM 27.2969 124.1687 231° Southwest  Level Estimated
09:12AM 27.2342 124.0831 231° Southwest  Level Estimated
09:13AM 27.1715 123.9975 231° Southwest  Level Estimated
09:14AM 27.1087 123.9121 230° Southwest  Level Estimated
09:15AM 27.0459 123.8268 230° Southwest  Level Estimated
09:16AM 26.9830 123.7416 230° Southwest  Level Estimated
09:17AM 26.9201 123.6564 230° Southwest  Level Estimated
09:18AM 26.8571 123.5714 230° Southwest  Level Estimated
09:19AM 26.7941 123.4864 230° Southwest  Level Estimated
09:19AM 26.3370 123.0060 230° Southwest 348 400 30,000  Level FlightAware
09:20AM 26.7310 123.4016 230° Southwest  Level Estimated
09:20AM 26.2950 122.9530 229° Southwest 346 398 30,000  Level FlightAware
09:21AM 26.2540 122.8970 231° Southwest 345 397 30,000  Level FlightAware
09:22AM 26.2080 122.8370 229° Southwest 344 396 30,000  Level FlightAware
09:22AM 26.1670 122.7830 230° Southwest 344 396 30,000 -120 Level FlightAware
09:23AM 26.1200 122.7210 230° Southwest 344 396 29,900 -660 Descending FlightAware
09:24AM 26.0790 122.6670 230° Southwest 339 390 29,100 -1,380 Descending FlightAware
09:24AM 26.0380 122.6140 229° Southwest 337 388 28,100 -1,560 Descending FlightAware
09:25AM 25.9930 122.5550 230° Southwest 336 387 26,900 -1,560 Descending FlightAware
09:26AM 25.9530 122.5020 230° Southwest 335 386 25,900 -1,500 Descending FlightAware
09:26AM 25.9060 122.4420 229° Southwest 338 389 24,800 -1,380 Descending FlightAware
09:27AM 25.8660 122.3920 228° Southwest 338 389 24,000 -1,080 Descending FlightAware
09:28AM 25.8190 122.3330 228° Southwest 339 390 23,300 -900 Descending FlightAware
09:29AM 25.7770 122.2810 228° Southwest 336 387 22,800 -840 Descending FlightAware
09:29AM 25.7360 122.2290 229° Southwest 332 382 22,200 -1,080 Descending FlightAware
09:30AM 25.6890 122.1700 229° Southwest 328 377 21,300 -1,080 Descending FlightAware
09:31AM 25.6450 122.1160 228° Southwest 325 374 20,600 -1,080 Descending FlightAware
09:31AM 25.6040 122.0650 228° Southwest 324 373 19,800 -1,080 Descending FlightAware
09:32AM 25.5650 122.0150 229° Southwest 319 367 19,200 -1,020 Descending FlightAware
09:32AM 25.5530 121.9930 239° Southwest 315 362 18,900 -1,200 Descending FlightAware
09:33AM 25.5370 121.9260 255° West 306 352 18,000 -1,440 Descending FlightAware
09:34AM 25.5260 121.8640 259° West 304 350 16,900 -1,380 Descending FlightAware
09:34AM 25.5150 121.8040 259° West 295 339 16,200 -1,380 Descending FlightAware
09:35AM 25.5020 121.7370 258° West 289 333 15,000 -1,680 Descending FlightAware
09:36AM 25.4910 121.6780 258° West 289 333 13,900 -1,380 Descending FlightAware
09:36AM 25.4800 121.6210 258° West 287 330 13,200 -1,440 Descending FlightAware
09:37AM 25.4680 121.5570 258° West 287 330 11,900 -1,740 Descending FlightAware
09:37AM 25.4570 121.5370 239° Southwest 288 331 11,500 -1,560 Descending FlightAware
09:38AM 25.4230 121.4920 230° Southwest 287 330 10,500 -1,560 Descending FlightAware
09:39AM 25.3960 121.4590 228° Southwest 288 331 9,700 -1,560 Descending FlightAware
09:39AM 25.3750 121.4310 230° Southwest 287 330 9,100 -1,080 Descending FlightAware
09:39AM 25.3610 121.4140 228° Southwest 286 329 9,000 -180 Descending FlightAware
09:40AM 25.3360 121.3800 231° Southwest 282 325 9,000  Level FlightAware
09:40AM 25.3270 121.3620 241° Southwest 283 326 9,000  Level FlightAware
09:40AM 25.3140 121.3280 247° West 280 322 9,000  Level FlightAware
09:41AM 25.2990 121.2890 247° West 279 321 9,000  Level FlightAware
09:41AM 25.2930 121.2750 245° Southwest 281 323 9,000  Level FlightAware
09:42AM 25.2780 121.2360 247° West 280 322 9,000  Level FlightAware
09:42AM 25.2630 121.1960 247° West 278 320 9,000  Level FlightAware
09:42AM 25.2580 121.1830 247° West 280 322 9,000  Level FlightAware
09:43AM 25.2430 121.1430 247° West 281 323 9,000 -540 Level FlightAware
09:43AM 25.2280 121.1040 247° West 276 318 8,500 -1,200 Descending FlightAware
09:43AM 25.2230 121.0910 247° West 276 318 8,200 -1,500 Descending FlightAware
09:44AM 25.2090 121.0510 249° West 274 315 7,500 -1,440 Descending FlightAware
09:44AM 25.1940 121.0130 246° West 275 316 6,800 -1,560 Descending FlightAware
09:45AM 25.1760 120.9860 234° Southwest 277 319 6,100 -1,680 Descending FlightAware
09:45AM 25.1620 120.9680 229° Southwest 277 319 5,700 -1,380 Descending FlightAware
09:46AM 25.1370 120.9370 228° Southwest 275 316 5,100 -1,380 Descending FlightAware
09:46AM 25.1280 120.9260 228° Southwest 277 319 4,800 -1,500 Descending FlightAware
09:46AM 25.1030 120.8930 230° Southwest 281 323 4,100 -840 Descending FlightAware
09:47AM 25.0770 120.8600 229° Southwest 286 329 4,000 -120 Descending FlightAware
09:47AM 25.0570 120.8330 231° Southwest 285 328 4,000  Level FlightAware
09:48AM 25.0320 120.8010 229° Southwest 281 323 4,000  Level FlightAware
09:48AM 25.0150 120.7870 217° Southwest 260 299 4,000  Level FlightAware
09:48AM 25.0030 120.7840 193° South 241 277 4,000  Level FlightAware
09:49AM 24.9760 120.7970 156° South 205 236 4,000  Level FlightAware
09:49AM 24.9560 120.8170 138° Southeast 188 216 4,000 -300 Level FlightAware
09:49AM 24.9530 120.8260 110° East 185 213 3,800 -1,380 Descending FlightAware
09:50AM 24.9500 120.8540 97° East 185 213 3,100 -1,200 Descending FlightAware
09:50AM 24.9480 120.8760 96° East 178 205 2,700 -780 Descending FlightAware
09:51AM 24.9450 120.9030 97° East 170 196 2,400 -720 Descending FlightAware
09:51AM 24.9430 120.9280 95° East 162 186 2,000 -540 Descending FlightAware
09:51AM 24.9420 120.9410 95° East 164 189 2,000  Level FlightAware
09:52AM 24.9400 120.9610 96° East 165 190 2,000  Level FlightAware
09:52AM 24.9380 120.9870 95° East 167 192 2,000  Level FlightAware
09:53AM 24.9400 121.0070 84° East 169 194 2,000  Level FlightAware
09:53AM 24.9470 121.0330 73° East 161 185 2,000  Level FlightAware
09:54AM 24.9530 121.0520 71° East 166 191 2,000  Level FlightAware
09:54AM 24.9680 121.0720 50° Northeast 169 194 2,000  Level FlightAware
09:55AM 24.9840 121.0920 49° Northeast 166 191 2,000  Level FlightAware
09:55AM 24.9970 121.1080 48° Northeast 167 192 2,000 -480 Level FlightAware
09:56AM 25.0100 121.1250 50° Northeast 146 168 1,600 -900 Descending FlightAware
09:56AM 25.0220 121.1400 49° Northeast 143 165 1,200 -900 Descending FlightAware
09:57AM 25.0360 121.1570 48° Northeast 143 165 800 -720 Descending FlightAware
09:57AM 25.0480 121.1730 50° Northeast 146 168 500 -780 Descending FlightAware
09:57AM 25.0600 121.1880 49° Northeast 149 171 100 -960 Descending FlightAware